Terminal Aerodrome Forecast
Issued by NWS

Home | Current Version | Previous Version | Text Only | Print | Product List | Glossary On
Versions: 1 2 3 4 5 6 7 8 9 10 11 12 13 14
000
FTUS41 KBTV 060531
TAFPBG
TAF
KPBG 060531Z 0606/0706 01005KT P6SM SCT200
     FM061200 35011KT P6SM SKC
     FM061700 03016KT P6SM FEW250
     FM062100 02015KT P6SM BKN100
     FM070000 36008KT P6SM BKN050
     FM070200 24005KT P6SM BKN050=

USA.gov is the U.S. government's official web portal to all federal, state and local government web resources and services.